createdAt,value
2019-03-24T00:00:32.501Z,71.00
2019-03-24T00:03:01.978Z,71.30
2019-03-24T00:05:31.417Z,71.40
2019-03-24T00:08:01.001Z,71.40
2019-03-24T00:10:30.494Z,70.40
2019-03-24T00:12:59.945Z,70.70
2019-03-24T00:15:29.501Z,71.90
2019-03-24T00:17:59.028Z,72.20
2019-03-24T00:20:28.450Z,72.20
2019-03-24T00:22:58.083Z,73.10
2019-03-24T00:25:27.450Z,73.30
2019-03-24T00:27:56.883Z,73.50
2019-03-24T00:30:26.325Z,73.60
2019-03-24T00:32:55.906Z,74.60
2019-03-24T00:35:25.336Z,74.10
2019-03-24T00:37:54.857Z,74.00
2019-03-24T00:40:24.368Z,74.20
2019-03-24T00:42:53.776Z,75.00
2019-03-24T00:45:23.146Z,74.30
2019-03-24T00:47:52.493Z,75.50
2019-03-24T00:50:21.937Z,75.20
2019-03-24T00:52:51.457Z,75.60
2019-03-24T00:55:20.971Z,75.80
2019-03-24T00:57:50.497Z,76.20
2019-03-24T01:00:23.147Z,76.40
2019-03-24T01:02:52.498Z,76.20
2019-03-24T01:05:22.005Z,75.50
2019-03-24T01:07:51.510Z,76.30
2019-03-24T01:10:21.023Z,76.40
2019-03-24T01:12:50.469Z,76.70
2019-03-24T01:15:19.905Z,76.50
2019-03-24T01:17:49.338Z,77.50
2019-03-24T01:20:18.720Z,77.00
2019-03-24T01:22:48.083Z,77.60
2019-03-24T01:25:17.592Z,78.00
2019-03-24T01:27:47.093Z,78.20
2019-03-24T01:30:16.540Z,78.20
2019-03-24T01:32:46.023Z,77.60
2019-03-24T01:35:16.502Z,78.00
2019-03-24T01:37:46.054Z,77.40
2019-03-24T01:40:15.493Z,77.60
2019-03-24T01:42:45.023Z,77.60
2019-03-24T01:45:14.473Z,77.10
2019-03-24T01:47:44.057Z,77.30
2019-03-24T01:50:13.631Z,77.80
2019-03-24T01:52:43.001Z,78.00
2019-03-24T01:55:12.484Z,78.30
2019-03-24T01:57:41.998Z,78.00
2019-03-24T02:00:11.627Z,78.40
2019-03-24T02:02:41.210Z,78.70
2019-03-24T02:05:10.799Z,79.20
2019-03-24T02:07:40.264Z,79.30
2019-03-24T02:10:09.864Z,79.70
2019-03-24T02:12:39.284Z,79.60
2019-03-24T02:15:08.874Z,79.70
2019-03-24T02:17:38.385Z,79.70
2019-03-24T02:20:07.945Z,79.70
2019-03-24T02:22:37.388Z,79.40
2019-03-24T02:25:07.336Z,78.30
2019-03-24T02:27:36.685Z,78.60
2019-03-24T02:30:09.087Z,78.70
2019-03-24T02:32:38.560Z,78.60
2019-03-24T02:35:08.019Z,78.40
2019-03-24T02:37:37.389Z,78.30
2019-03-24T02:40:08.549Z,79.50
2019-03-24T02:42:37.981Z,78.50
2019-03-24T02:45:07.794Z,79.10
2019-03-24T02:47:37.321Z,79.20
2019-03-24T02:50:20.700Z,80.00
2019-03-24T02:52:50.510Z,80.20
2019-03-24T02:55:19.934Z,80.50
2019-03-24T02:57:49.317Z,80.90
2019-03-24T03:00:18.988Z,81.40
2019-03-24T03:02:48.420Z,81.60
2019-03-24T03:05:17.862Z,81.80
2019-03-24T03:07:47.358Z,81.80
2019-03-24T03:10:16.949Z,81.80
2019-03-24T03:12:47.740Z,81.90
2019-03-24T03:15:17.326Z,81.60
2019-03-24T03:17:46.830Z,82.20
2019-03-24T03:20:16.326Z,82.30
2019-03-24T03:22:45.834Z,82.80
2019-03-24T03:25:15.249Z,83.10
2019-03-24T03:27:44.616Z,83.40
2019-03-24T03:30:14.118Z,83.50
2019-03-24T03:32:43.478Z,83.50
2019-03-24T03:35:12.975Z,83.40
2019-03-24T03:37:42.408Z,83.80
2019-03-24T03:40:11.877Z,83.80
2019-03-24T03:42:41.283Z,83.90
2019-03-24T03:45:11.088Z,83.80
2019-03-24T03:47:40.551Z,83.50
2019-03-24T03:50:10.133Z,83.60
2019-03-24T03:52:39.550Z,83.30
2019-03-24T03:55:08.973Z,83.50
2019-03-24T03:57:39.423Z,82.70
2019-03-24T04:00:10.052Z,83.50
2019-03-24T04:02:39.510Z,83.00
2019-03-24T04:05:09.264Z,83.20
2019-03-24T04:07:38.682Z,83.40
2019-03-24T04:10:08.134Z,82.50
2019-03-24T04:12:37.572Z,83.50
2019-03-24T04:15:07.493Z,83.40
2019-03-24T04:17:36.996Z,83.40
2019-03-24T04:20:06.509Z,84.40
2019-03-24T04:22:35.962Z,83.50
2019-03-24T04:25:06.499Z,82.90
2019-03-24T04:27:36.009Z,83.20
2019-03-24T04:30:06.393Z,83.40
2019-03-24T04:32:35.753Z,83.20
2019-03-24T04:35:08.256Z,83.50
2019-03-24T04:37:37.768Z,83.60
2019-03-24T04:40:07.530Z,83.60
2019-03-24T04:42:38.031Z,84.20
2019-03-24T04:45:07.560Z,84.10
2019-03-24T04:47:37.075Z,83.90
2019-03-24T04:50:07.560Z,83.80
2019-03-24T04:52:36.998Z,83.90
2019-03-24T04:55:07.853Z,84.20
2019-03-24T04:57:37.385Z,84.20
2019-03-24T05:00:09.763Z,84.20
2019-03-24T05:02:39.181Z,84.10
2019-03-24T05:05:08.624Z,84.30
2019-03-24T05:07:39.048Z,84.20
2019-03-24T05:10:14.578Z,84.60
2019-03-24T05:12:44.100Z,84.80
2019-03-24T05:15:13.516Z,85.50
2019-03-24T05:17:43.021Z,85.70
2019-03-24T05:20:12.419Z,86.40
2019-03-24T05:22:41.866Z,86.50
2019-03-24T05:25:11.521Z,86.40
2019-03-24T05:27:40.952Z,86.80
2019-03-24T05:30:11.556Z,87.00
2019-03-24T05:32:41.015Z,87.10
2019-03-24T05:35:10.513Z,86.80
2019-03-24T05:37:39.846Z,87.30
2019-03-24T05:40:09.302Z,86.50
2019-03-24T05:42:38.794Z,87.10
2019-03-24T05:45:08.274Z,87.30
2019-03-24T05:47:37.724Z,87.50
2019-03-24T05:50:09.945Z,87.00
2019-03-24T05:52:39.473Z,86.80
2019-03-24T05:55:09.038Z,86.90
2019-03-24T05:57:38.621Z,87.20
2019-03-24T06:00:09.131Z,87.20
2019-03-24T06:02:39.606Z,86.50
2019-03-24T06:05:09.009Z,87.30
2019-03-24T06:07:38.453Z,87.60
2019-03-24T06:10:07.979Z,87.60
2019-03-24T06:12:37.460Z,87.90
2019-03-24T06:15:08.357Z,88.20
2019-03-24T06:17:47.511Z,88.70
2019-03-24T06:20:11.257Z,89.10
2019-03-24T06:22:40.830Z,89.60
2019-03-24T06:25:10.370Z,89.60
2019-03-24T06:27:39.770Z,89.60
2019-03-24T06:30:09.181Z,89.50
2019-03-24T06:32:38.694Z,90.10
2019-03-24T06:35:08.456Z,90.10
2019-03-24T06:37:37.914Z,90.20
2019-03-24T06:40:07.823Z,89.90
2019-03-24T06:42:37.354Z,90.30
2019-03-24T06:45:07.242Z,90.20
2019-03-24T06:47:36.743Z,90.20
2019-03-24T06:50:07.439Z,90.30
2019-03-24T06:52:37.918Z,90.30
2019-03-24T06:55:07.296Z,90.30
2019-03-24T06:57:36.798Z,90.50
2019-03-24T07:00:09.800Z,90.30
2019-03-24T07:02:39.316Z,90.40
2019-03-24T07:05:08.692Z,90.30
2019-03-24T07:07:38.214Z,90.30
2019-03-24T07:10:08.565Z,90.40
2019-03-24T07:12:38.056Z,90.50
2019-03-24T07:15:08.613Z,90.40
2019-03-24T07:17:38.186Z,90.30
2019-03-24T07:20:07.742Z,90.20
2019-03-24T07:22:37.345Z,89.30
2019-03-24T07:25:07.298Z,89.80
2019-03-24T07:27:36.814Z,89.00
2019-03-24T07:30:08.272Z,89.70
2019-03-24T07:32:37.759Z,89.70
2019-03-24T07:35:07.493Z,89.20
2019-03-24T07:37:36.972Z,89.20
2019-03-24T07:40:09.574Z,88.70
2019-03-24T07:42:39.105Z,88.90
2019-03-24T07:45:21.419Z,87.30
2019-03-24T07:47:51.106Z,87.20
2019-03-24T07:50:20.632Z,86.10
2019-03-24T07:52:50.074Z,85.80
2019-03-24T07:55:19.585Z,85.60
2019-03-24T07:57:49.253Z,85.20
2019-03-24T08:00:27.646Z,85.20
2019-03-24T08:02:57.146Z,85.00
2019-03-24T08:05:26.593Z,84.00
2019-03-24T08:07:56.180Z,82.80
2019-03-24T08:10:25.669Z,80.30
2019-03-24T08:12:55.192Z,79.60
2019-03-24T08:15:24.638Z,78.50
2019-03-24T08:17:54.101Z,78.20
2019-03-24T08:20:23.641Z,77.90
2019-03-24T08:22:53.081Z,77.10
2019-03-24T08:25:22.531Z,76.90
2019-03-24T08:27:52.021Z,76.60
2019-03-24T08:30:28.855Z,77.90
2019-03-24T08:32:58.287Z,77.80
2019-03-24T08:35:27.714Z,78.40
2019-03-24T08:37:57.230Z,79.10
2019-03-24T08:40:26.740Z,79.30
2019-03-24T08:42:56.256Z,79.10
2019-03-24T08:45:29.904Z,78.90
2019-03-24T08:47:59.408Z,78.70
2019-03-24T08:50:28.982Z,78.40
2019-03-24T08:52:58.433Z,77.80
2019-03-24T08:55:27.874Z,77.80
2019-03-24T08:57:58.205Z,77.40
2019-03-24T09:00:30.910Z,77.30
2019-03-24T09:02:59.906Z,77.10
2019-03-24T09:05:29.394Z,78.40
2019-03-24T09:07:58.763Z,79.60
2019-03-24T09:10:28.279Z,79.40
2019-03-24T09:12:57.789Z,79.90
2019-03-24T09:15:27.199Z,80.20
2019-03-24T09:17:56.638Z,79.90
2019-03-24T09:20:26.079Z,80.10
2019-03-24T09:22:55.519Z,80.10
2019-03-24T09:25:25.126Z,79.80
2019-03-24T09:27:54.825Z,79.50
2019-03-24T09:30:28.830Z,77.80
2019-03-24T09:32:58.227Z,78.30
2019-03-24T09:35:27.761Z,77.80
2019-03-24T09:37:57.370Z,76.50
2019-03-24T09:40:28.335Z,75.40
2019-03-24T09:42:58.921Z,76.10
2019-03-24T09:45:30.167Z,76.50
2019-03-24T09:48:01.618Z,76.70
2019-03-24T09:50:31.052Z,77.30
2019-03-24T09:53:00.776Z,77.30
2019-03-24T09:55:30.358Z,76.60
2019-03-24T09:57:59.787Z,75.90
2019-03-24T10:00:29.921Z,76.10
2019-03-24T10:02:59.595Z,76.60
2019-03-24T10:05:29.088Z,77.30
2019-03-24T10:07:58.524Z,77.50
2019-03-24T10:10:27.956Z,76.60
2019-03-24T10:12:57.475Z,76.50
2019-03-24T10:15:26.873Z,76.30
2019-03-24T10:17:56.377Z,76.40
2019-03-24T10:20:25.742Z,76.30
2019-03-24T10:22:55.264Z,76.00
2019-03-24T10:25:24.731Z,76.60
2019-03-24T10:27:54.141Z,75.70
2019-03-24T10:30:23.877Z,76.30
2019-03-24T10:32:54.512Z,76.90
2019-03-24T10:35:24.044Z,76.60
2019-03-24T10:37:53.590Z,76.00
2019-03-24T10:40:28.549Z,72.80
2019-03-24T10:42:54.198Z,70.10
2019-03-24T10:45:23.650Z,67.60
2019-03-24T10:47:53.322Z,65.60
2019-03-24T10:50:22.758Z,66.00
2019-03-24T10:52:52.328Z,65.40
2019-03-24T10:55:21.824Z,64.50
2019-03-24T10:57:51.339Z,62.90
2019-03-24T11:00:29.779Z,61.60
2019-03-24T11:02:59.440Z,61.80
2019-03-24T11:05:28.903Z,61.50
2019-03-24T11:07:58.508Z,61.00
2019-03-24T11:10:28.037Z,60.80
2019-03-24T11:12:57.544Z,61.90
2019-03-24T11:15:27.159Z,58.60
2019-03-24T11:17:56.682Z,59.30
2019-03-24T11:20:26.278Z,58.90
2019-03-24T11:22:56.235Z,58.80
2019-03-24T11:25:25.678Z,58.20
2019-03-24T11:27:55.263Z,57.40
2019-03-24T11:30:24.686Z,57.10
2019-03-24T11:32:54.135Z,57.40
2019-03-24T11:35:23.688Z,58.00
2019-03-24T11:37:53.160Z,56.10
2019-03-24T11:40:22.628Z,56.00
2019-03-24T11:42:52.153Z,54.20
2019-03-24T11:45:21.994Z,54.50
2019-03-24T11:47:51.641Z,54.70
2019-03-24T11:50:21.161Z,55.00
2019-03-24T11:52:50.725Z,55.20
2019-03-24T11:55:20.350Z,55.60
2019-03-24T11:57:51.512Z,55.20
2019-03-24T12:00:24.299Z,55.10
2019-03-24T12:02:54.770Z,55.40
2019-03-24T12:05:24.470Z,53.70
2019-03-24T12:07:54.090Z,54.20
2019-03-24T12:10:23.569Z,54.20
2019-03-24T12:12:53.178Z,54.50
2019-03-24T12:15:22.750Z,55.20
2019-03-24T12:17:52.132Z,55.40
2019-03-24T12:20:21.865Z,55.90
2019-03-24T12:22:51.403Z,56.10
2019-03-24T12:25:20.843Z,56.30
2019-03-24T12:27:50.469Z,56.90
2019-03-24T12:30:20.098Z,57.70
2019-03-24T12:32:49.651Z,59.20
2019-03-24T12:35:19.261Z,59.70
2019-03-24T12:37:48.864Z,58.00
2019-03-24T12:40:18.462Z,57.00
2019-03-24T12:42:47.868Z,56.50
2019-03-24T12:45:17.582Z,56.90
2019-03-24T12:47:47.332Z,56.80
2019-03-24T12:50:17.770Z,57.30
2019-03-24T12:52:47.448Z,58.00
2019-03-24T12:55:16.818Z,60.60
2019-03-24T12:57:46.424Z,64.40
2019-03-24T13:00:19.203Z,67.90
2019-03-24T13:02:48.790Z,69.50
2019-03-24T13:05:19.054Z,71.30
2019-03-24T13:07:48.449Z,72.40
2019-03-24T13:10:17.891Z,72.60
2019-03-24T13:12:47.621Z,70.70
2019-03-24T13:15:17.150Z,68.00
2019-03-24T13:17:46.720Z,66.60
2019-03-24T13:20:27.882Z,66.30
2019-03-24T13:22:47.321Z,65.50
2019-03-24T13:25:16.820Z,64.90
2019-03-24T13:27:46.480Z,64.80
2019-03-24T13:30:15.934Z,64.30
2019-03-24T13:32:45.353Z,69.50
2019-03-24T13:35:14.799Z,74.80
2019-03-24T13:37:44.315Z,80.50
2019-03-24T13:40:13.911Z,84.00
2019-03-24T13:42:43.343Z,85.10
2019-03-24T13:45:13.031Z,84.50
2019-03-24T13:47:42.477Z,86.10
2019-03-24T13:50:12.118Z,84.10
2019-03-24T13:52:42.648Z,81.50
2019-03-24T13:55:12.408Z,77.00
2019-03-24T13:57:41.986Z,75.50
2019-03-24T14:00:12.590Z,72.30
2019-03-24T14:02:42.153Z,72.30
2019-03-24T14:05:11.607Z,69.90
2019-03-24T14:07:41.245Z,71.00
2019-03-24T14:10:11.892Z,70.20
2019-03-24T14:12:41.341Z,70.00
2019-03-24T14:15:11.033Z,70.20
2019-03-24T14:17:40.480Z,69.60
2019-03-24T14:20:09.903Z,68.60
2019-03-24T14:22:40.530Z,67.30
2019-03-24T14:25:10.181Z,66.80
2019-03-24T14:27:39.855Z,66.60
2019-03-24T14:30:09.429Z,63.00
2019-03-24T14:32:39.025Z,63.00
2019-03-24T14:35:08.532Z,63.00
2019-03-24T14:37:38.230Z,62.90
2019-03-24T14:40:08.348Z,62.70
2019-03-24T14:42:37.901Z,61.90
2019-03-24T14:45:08.381Z,62.20
2019-03-24T14:47:37.791Z,62.30
2019-03-24T14:50:07.719Z,62.10
2019-03-24T14:52:37.291Z,65.20
2019-03-24T14:55:06.883Z,75.10
2019-03-24T14:57:36.402Z,83.00
2019-03-24T15:00:07.457Z,86.00
2019-03-24T15:02:37.196Z,88.30
2019-03-24T15:05:07.440Z,89.00
2019-03-24T15:07:37.012Z,88.30
2019-03-24T15:10:07.054Z,83.60
2019-03-24T15:12:36.545Z,81.50
2019-03-24T15:15:07.463Z,79.20
2019-03-24T15:17:38.527Z,77.70
2019-03-24T15:20:09.511Z,79.30
2019-03-24T15:22:39.113Z,77.80
2019-03-24T15:25:08.681Z,79.80
2019-03-24T15:27:38.371Z,80.00
2019-03-24T15:30:08.338Z,76.50
2019-03-24T15:32:39.054Z,73.30
2019-03-24T15:35:08.699Z,71.90
2019-03-24T15:37:38.374Z,70.40
2019-03-24T15:40:07.890Z,67.90
2019-03-24T15:42:38.516Z,66.90
2019-03-24T15:45:08.055Z,67.50
2019-03-24T15:47:37.666Z,65.70
2019-03-24T15:50:08.515Z,64.90
2019-03-24T15:52:38.351Z,62.90
2019-03-24T15:55:07.939Z,62.90
2019-03-24T15:57:37.448Z,63.00
2019-03-24T16:00:07.246Z,64.00
2019-03-24T16:02:37.000Z,63.20
2019-03-24T16:05:07.095Z,63.80
2019-03-24T16:07:36.752Z,64.50
2019-03-24T16:10:07.878Z,65.90
2019-03-24T16:12:37.436Z,67.40
2019-03-24T16:15:07.523Z,70.60
2019-03-24T16:17:37.042Z,71.90
2019-03-24T16:20:07.221Z,72.30
2019-03-24T16:22:36.652Z,72.60
2019-03-24T16:25:07.400Z,73.40
2019-03-24T16:27:36.984Z,74.50
2019-03-24T16:30:07.750Z,75.50
2019-03-24T16:32:37.212Z,75.00
2019-03-24T16:35:06.768Z,74.30
2019-03-24T16:37:36.560Z,73.90
2019-03-24T16:40:07.006Z,69.40
2019-03-24T16:42:36.660Z,70.40
2019-03-24T16:45:06.653Z,70.70
2019-03-24T16:47:36.169Z,70.20
2019-03-24T16:50:07.243Z,70.20
2019-03-24T16:52:36.982Z,68.70
2019-03-24T16:55:07.361Z,67.80
2019-03-24T16:57:36.870Z,67.60
2019-03-24T17:00:07.800Z,68.20
2019-03-24T17:02:38.396Z,68.80
2019-03-24T17:05:07.840Z,69.90
2019-03-24T17:07:39.002Z,69.20
2019-03-24T17:10:08.554Z,69.50
2019-03-24T17:12:38.205Z,69.70
2019-03-24T17:15:08.029Z,69.70
2019-03-24T17:17:37.646Z,70.30
2019-03-24T17:20:07.802Z,71.00
2019-03-24T17:22:37.468Z,71.90
2019-03-24T17:25:07.657Z,71.80
2019-03-24T17:27:37.173Z,71.70
2019-03-24T17:30:09.623Z,71.30
2019-03-24T17:32:39.102Z,71.70
2019-03-24T17:35:08.750Z,71.90
2019-03-24T17:37:38.254Z,72.10
2019-03-24T17:40:08.373Z,72.80
2019-03-24T17:42:37.799Z,74.50
2019-03-24T17:45:08.580Z,75.90
2019-03-24T17:47:38.192Z,76.50
2019-03-24T17:50:08.966Z,77.20
2019-03-24T17:52:38.549Z,76.90
2019-03-24T17:55:07.975Z,77.00
2019-03-24T17:57:38.020Z,76.80
2019-03-24T18:00:10.868Z,76.60
2019-03-24T18:02:40.408Z,76.10
2019-03-24T18:05:10.082Z,75.40
2019-03-24T18:07:39.551Z,74.10
2019-03-24T18:10:10.233Z,73.70
2019-03-24T18:12:39.936Z,73.00
2019-03-24T18:15:10.185Z,72.80
2019-03-24T18:17:39.750Z,72.50
2019-03-24T18:20:09.637Z,72.00
2019-03-24T18:22:39.218Z,71.60
2019-03-24T18:25:09.492Z,69.90
2019-03-24T18:27:39.010Z,69.40
2019-03-24T18:30:11.354Z,68.90
2019-03-24T18:32:40.934Z,68.90
2019-03-24T18:35:11.077Z,69.30
2019-03-24T18:37:40.514Z,69.30
2019-03-24T18:40:11.228Z,69.10
2019-03-24T18:42:40.995Z,69.20
2019-03-24T18:45:11.414Z,69.10
2019-03-24T18:47:41.090Z,69.00
2019-03-24T18:50:11.052Z,68.90
2019-03-24T18:52:40.498Z,68.80
2019-03-24T18:55:11.887Z,68.90
2019-03-24T18:57:41.351Z,69.30
2019-03-24T19:00:12.307Z,69.10
2019-03-24T19:02:41.834Z,68.90
2019-03-24T19:05:11.646Z,68.70
2019-03-24T19:07:41.185Z,68.70
2019-03-24T19:10:11.464Z,68.50
2019-03-24T19:12:40.874Z,68.60
2019-03-24T19:15:12.161Z,68.90
2019-03-24T19:17:41.683Z,69.00
2019-03-24T19:20:11.341Z,69.10
2019-03-24T19:22:40.911Z,69.50
2019-03-24T19:25:10.624Z,69.80
2019-03-24T19:27:40.499Z,70.10
2019-03-24T19:30:11.633Z,70.20
2019-03-24T19:32:42.109Z,70.40
2019-03-24T19:35:11.563Z,70.50
2019-03-24T19:37:42.412Z,70.80
2019-03-24T19:40:31.617Z,70.90
2019-03-24T19:43:01.178Z,71.20
2019-03-24T19:45:30.731Z,71.60
2019-03-24T19:48:00.424Z,71.70
2019-03-24T19:50:30.142Z,71.80
2019-03-24T19:52:59.823Z,72.10
2019-03-24T19:55:29.280Z,72.50
2019-03-24T19:57:58.904Z,72.70
2019-03-24T20:00:28.461Z,73.20
2019-03-24T20:02:57.977Z,73.40
2019-03-24T20:05:27.477Z,73.30
2019-03-24T20:07:57.143Z,73.50
2019-03-24T20:10:26.539Z,73.40
2019-03-24T20:12:56.305Z,73.80
2019-03-24T20:15:26.026Z,73.70
2019-03-24T20:17:55.436Z,73.90
2019-03-24T20:20:26.049Z,74.30
2019-03-24T20:22:58.198Z,74.60
2019-03-24T20:25:27.734Z,74.60
2019-03-24T20:27:57.269Z,75.00
2019-03-24T20:30:26.862Z,75.20
2019-03-24T20:32:56.303Z,75.20
2019-03-24T20:35:25.937Z,75.20
2019-03-24T20:37:55.560Z,75.00
2019-03-24T20:40:25.066Z,74.90
2019-03-24T20:42:55.582Z,74.80
2019-03-24T20:45:25.165Z,74.60
2019-03-24T20:48:07.035Z,74.60
2019-03-24T20:50:36.478Z,74.40
2019-03-24T20:53:17.615Z,74.30
2019-03-24T20:55:37.138Z,74.50
2019-03-24T20:58:06.664Z,74.20
2019-03-24T21:00:36.983Z,74.20
2019-03-24T21:03:08.036Z,74.10
2019-03-24T21:05:37.740Z,74.20
2019-03-24T21:08:07.326Z,74.50
2019-03-24T21:10:36.930Z,75.10
2019-03-24T21:13:06.720Z,75.70
2019-03-24T21:15:36.182Z,76.70
2019-03-24T21:18:06.037Z,77.50
2019-03-24T21:20:37.178Z,78.00
2019-03-24T21:23:08.122Z,79.30
2019-03-24T21:25:37.676Z,80.10
2019-03-24T21:28:07.200Z,81.10
2019-03-24T21:30:38.652Z,81.80
2019-03-24T21:33:08.320Z,82.80
2019-03-24T21:35:37.913Z,83.20
2019-03-24T21:38:07.450Z,83.40
2019-03-24T21:40:36.928Z,83.60
2019-03-24T21:43:06.810Z,84.10
2019-03-24T21:45:36.514Z,83.80
2019-03-24T21:48:06.085Z,83.90
2019-03-24T21:50:35.694Z,83.60
2019-03-24T21:53:05.280Z,83.60
2019-03-24T21:55:34.790Z,84.30
2019-03-24T21:58:04.377Z,83.30
2019-03-24T22:00:34.896Z,84.50
2019-03-24T22:03:04.587Z,84.80
2019-03-24T22:05:34.142Z,83.90
2019-03-24T22:08:03.651Z,83.50
2019-03-24T22:10:32.990Z,83.20
2019-03-24T22:13:02.849Z,82.60
2019-03-24T22:15:32.254Z,82.70
2019-03-24T22:18:01.785Z,81.80
2019-03-24T22:20:32.499Z,81.90
2019-03-24T22:23:02.054Z,82.00
2019-03-24T22:25:31.567Z,81.80
2019-03-24T22:28:00.971Z,81.60
2019-03-24T22:30:30.434Z,83.20
2019-03-24T22:33:00.025Z,86.30
2019-03-24T22:35:29.472Z,90.00
2019-03-24T22:37:58.994Z,90.20
2019-03-24T22:40:28.475Z,90.40
2019-03-24T22:42:58.044Z,90.30
2019-03-24T22:45:27.558Z,91.70
2019-03-24T22:47:57.065Z,91.80
2019-03-24T22:50:26.530Z,92.80
2019-03-24T22:52:56.628Z,92.20
2019-03-24T22:55:26.187Z,92.50
2019-03-24T22:57:55.604Z,92.60
2019-03-24T23:00:26.605Z,91.50
2019-03-24T23:02:57.612Z,91.80
2019-03-24T23:05:27.045Z,91.90
2019-03-24T23:07:56.487Z,91.10
2019-03-24T23:10:26.081Z,90.70
2019-03-24T23:12:55.599Z,91.10
2019-03-24T23:15:25.051Z,90.70
2019-03-24T23:17:54.455Z,90.50
2019-03-24T23:20:23.908Z,90.50
2019-03-24T23:23:05.719Z,90.50
2019-03-24T23:25:35.221Z,91.00
2019-03-24T23:28:04.819Z,92.00
2019-03-24T23:30:34.459Z,93.00
2019-03-24T23:33:03.905Z,92.90
2019-03-24T23:35:33.447Z,92.70
2019-03-24T23:38:02.894Z,92.60
2019-03-24T23:40:32.309Z,92.70
2019-03-24T23:43:01.815Z,92.40
2019-03-24T23:45:31.257Z,92.20
2019-03-24T23:48:01.693Z,92.90
2019-03-24T23:50:31.107Z,93.30
2019-03-24T23:53:00.537Z,92.80
2019-03-24T23:55:29.973Z,92.50
2019-03-24T23:57:59.458Z,92.40
